Terminal Aerodrome Forecast
Issued by NWS

Home | Current Version | Previous Version | Graphics & Text | Print | Product List | Glossary On
Versions: 1 2 3 4 5 6 7 8 9 10 11 12 13 14 15
890
FTUS43 KGRB 252320
TAFAUW
TAF
KAUW 252320Z 2600/2624 26009G16KT P6SM FEW045
     FM260100 28005KT P6SM SCT200
     FM261500 27007KT P6SM SCT045=

USA.gov is the U.S. government's official web portal to all federal, state and local government web resources and services.